createdAt,value
2019-05-15T00:03:09.720Z,57.79
2019-05-15T00:08:15.254Z,57.77
2019-05-15T00:13:21.042Z,57.75
2019-05-15T00:18:28.163Z,58.36
2019-05-15T00:23:33.934Z,58.32
2019-05-15T00:28:39.416Z,58.90
2019-05-15T00:33:48.121Z,58.98
2019-05-15T00:38:52.919Z,60.00
2019-05-15T00:43:58.578Z,59.89
2019-05-15T00:49:04.215Z,60.09
2019-05-15T00:54:09.799Z,60.15
2019-05-15T00:59:26.467Z,61.00
2019-05-15T01:04:24.451Z,60.42
2019-05-15T01:09:30.064Z,60.99
2019-05-15T01:14:35.534Z,60.81
2019-05-15T01:19:41.840Z,60.74
2019-05-15T01:24:48.530Z,60.87
2019-05-15T01:29:54.619Z,60.70
2019-05-15T01:35:10.652Z,61.12
2019-05-15T01:40:18.241Z,61.19
2019-05-15T01:45:23.887Z,61.15
2019-05-15T01:50:29.338Z,61.63
2019-05-15T01:55:39.483Z,61.99
2019-05-15T02:00:45.283Z,62.21
2019-05-15T02:05:50.908Z,61.45
2019-05-15T02:10:58.843Z,61.51
2019-05-15T02:16:04.852Z,61.72
2019-05-15T02:21:11.691Z,62.28
2019-05-15T02:26:18.949Z,63.04
2019-05-15T02:31:24.609Z,62.09
2019-05-15T02:36:30.396Z,62.15
2019-05-15T02:41:39.550Z,62.41
2019-05-15T02:46:44.031Z,61.57
2019-05-15T02:51:49.923Z,61.86
2019-05-15T02:56:58.801Z,62.25
2019-05-15T03:02:02.796Z,62.85
2019-05-15T03:07:09.871Z,62.97
2019-05-15T03:12:19.363Z,62.75
2019-05-15T03:17:23.298Z,62.92
2019-05-15T03:22:29.565Z,63.00
2019-05-15T03:27:35.602Z,62.94
2019-05-15T03:32:52.417Z,62.10
2019-05-15T03:37:49.418Z,63.59
2019-05-15T03:42:58.995Z,63.64
2019-05-15T03:48:02.646Z,63.63
2019-05-15T03:53:10.154Z,63.09
2019-05-15T03:58:15.567Z,64.54
2019-05-15T04:03:24.012Z,64.30
2019-05-15T04:08:30.842Z,63.89
2019-05-15T04:13:39.680Z,64.84
2019-05-15T04:18:51.304Z,64.10
2019-05-15T04:24:00.228Z,65.03
2019-05-15T04:29:09.493Z,64.32
2019-05-15T04:34:13.226Z,64.86
2019-05-15T04:39:19.473Z,64.14
2019-05-15T04:44:28.982Z,64.82
2019-05-15T04:49:44.652Z,64.57
2019-05-15T04:54:54.085Z,64.70
2019-05-15T05:00:00.126Z,64.04
2019-05-15T05:05:09.699Z,64.57
2019-05-15T05:10:14.752Z,64.10
2019-05-15T05:15:21.056Z,64.37
2019-05-15T05:20:28.794Z,64.61
2019-05-15T05:25:38.809Z,64.99
2019-05-15T05:30:45.078Z,65.66
2019-05-15T05:35:50.840Z,65.43
2019-05-15T05:40:58.646Z,64.41
2019-05-15T05:46:05.030Z,65.30
2019-05-15T05:51:10.937Z,65.83
2019-05-15T05:56:18.138Z,66.51
2019-05-15T06:01:24.124Z,65.59
2019-05-15T06:06:30.528Z,64.57
2019-05-15T06:11:38.067Z,65.16
2019-05-15T06:16:44.073Z,64.47
2019-05-15T06:21:56.826Z,64.73
2019-05-15T06:26:58.700Z,64.32
2019-05-15T06:32:04.366Z,63.55
2019-05-15T06:37:09.828Z,63.86
2019-05-15T06:42:18.616Z,63.01
2019-05-15T06:47:23.619Z,62.62
2019-05-15T06:56:00.678Z,63.27
2019-05-15T07:01:08.327Z,63.77
2019-05-15T07:06:13.476Z,66.93
2019-05-15T07:11:19.190Z,68.95
2019-05-15T07:16:24.857Z,69.67
2019-05-15T07:21:30.227Z,70.44
2019-05-15T07:26:35.565Z,71.61
2019-05-15T07:31:40.897Z,73.06
2019-05-15T07:36:49.011Z,74.33
2019-05-15T07:41:54.778Z,74.34
2019-05-15T07:47:00.492Z,75.30
2019-05-15T07:52:08.449Z,73.86
2019-05-15T07:57:13.812Z,73.40
2019-05-15T08:02:19.247Z,73.92
2019-05-15T08:07:27.850Z,75.63
2019-05-15T08:12:35.382Z,74.72
2019-05-15T08:18:00.174Z,75.05
2019-05-15T08:22:51.044Z,75.21
2019-05-15T08:28:42.028Z,76.95
2019-05-15T08:33:50.722Z,77.12
2019-05-15T08:38:56.373Z,76.95
2019-05-15T08:44:01.809Z,78.44
2019-05-15T08:49:09.172Z,78.48
2019-05-15T08:54:14.843Z,79.36
2019-05-15T08:59:20.669Z,77.87
2019-05-15T09:04:34.302Z,78.15
2019-05-15T09:09:35.541Z,78.83
2019-05-15T09:14:41.084Z,78.93
2019-05-15T09:19:48.164Z,79.42
2019-05-15T09:24:54.854Z,81.00
2019-05-15T09:30:00.431Z,81.67
2019-05-15T09:35:08.344Z,82.94
2019-05-15T09:40:14.424Z,82.81
2019-05-15T09:45:20.920Z,83.04
2019-05-15T09:50:28.213Z,83.63
2019-05-15T09:55:34.159Z,83.35
2019-05-15T10:00:41.289Z,83.30
2019-05-15T10:05:48.243Z,82.93
2019-05-15T10:10:55.202Z,83.61
2019-05-15T10:16:00.750Z,84.03
2019-05-15T10:21:08.743Z,84.26
2019-05-15T10:26:19.049Z,83.56
2019-05-15T10:31:24.195Z,83.85
2019-05-15T10:36:32.003Z,84.98
2019-05-15T10:41:38.862Z,84.46
2019-05-15T10:46:44.615Z,85.60
2019-05-15T10:51:51.487Z,85.78
2019-05-15T10:57:00.465Z,85.99
2019-05-15T11:02:04.751Z,86.96
2019-05-15T11:07:10.545Z,86.88
2019-05-15T11:12:18.661Z,85.69
2019-05-15T11:17:23.477Z,86.81
2019-05-15T11:22:29.880Z,84.85
2019-05-15T11:27:35.588Z,86.37
2019-05-15T11:32:41.097Z,86.27
2019-05-15T11:37:49.183Z,86.50
2019-05-15T11:42:53.600Z,87.15
2019-05-15T11:48:03.711Z,86.39
2019-05-15T11:53:10.584Z,86.92
2019-05-15T11:58:18.867Z,87.65
2019-05-15T12:03:25.133Z,88.06
2019-05-15T12:08:30.709Z,87.13
2019-05-15T12:13:39.600Z,87.06
2019-05-15T12:18:45.007Z,86.86
2019-05-15T12:23:50.401Z,87.63
2019-05-15T12:28:58.478Z,88.69
2019-05-15T12:34:02.921Z,88.68
2019-05-15T12:39:13.423Z,88.87
2019-05-15T12:59:41.485Z,87.81
2019-05-15T13:04:50.651Z,88.64
2019-05-15T13:09:58.003Z,88.53
2019-05-15T13:15:08.199Z,88.49
2019-05-15T13:20:13.413Z,88.81
2019-05-15T13:25:19.036Z,89.29
2019-05-15T13:30:25.120Z,89.44
2019-05-15T13:35:31.137Z,89.60
2019-05-15T13:40:38.945Z,89.38
2019-05-15T13:45:43.743Z,89.49
2019-05-15T13:50:49.146Z,89.28
2019-05-15T13:55:55.293Z,89.63
2019-05-15T14:01:00.851Z,90.57
2019-05-15T14:06:09.395Z,90.82
2019-05-15T14:11:15.899Z,89.71
2019-05-15T14:16:21.329Z,88.87
2019-05-15T14:21:29.153Z,90.08
2019-05-15T14:26:34.831Z,88.69
2019-05-15T14:31:41.161Z,89.05
2019-05-15T14:36:48.355Z,88.43
2019-05-15T14:41:58.356Z,89.06
2019-05-15T14:47:04.335Z,88.58
2019-05-15T14:52:10.298Z,88.84
2019-05-15T14:57:18.364Z,89.83
2019-05-15T15:02:26.299Z,89.76
2019-05-15T15:07:38.064Z,89.84
2019-05-15T15:12:44.851Z,89.23
2019-05-15T15:17:50.154Z,88.84
2019-05-15T15:22:55.466Z,88.61
2019-05-15T15:28:08.047Z,89.07
2019-05-15T15:33:12.704Z,88.84
2019-05-15T15:38:22.845Z,89.78
2019-05-15T15:43:25.247Z,88.66
2019-05-15T15:48:30.480Z,88.93
2019-05-15T15:53:35.744Z,88.76
2019-05-15T15:58:43.769Z,88.26
2019-05-15T16:03:50.056Z,88.30
2019-05-15T16:08:59.658Z,88.51
2019-05-15T16:14:05.818Z,88.29
2019-05-15T16:19:12.050Z,87.67
2019-05-15T16:24:21.293Z,87.48
2019-05-15T16:29:24.996Z,87.76
2019-05-15T16:34:30.386Z,88.77
2019-05-15T16:39:38.031Z,89.47
2019-05-15T16:44:44.847Z,87.61
2019-05-15T16:49:50.133Z,87.42
2019-05-15T16:54:57.719Z,86.92
2019-05-15T17:00:09.215Z,88.11
2019-05-15T17:05:14.410Z,87.16
2019-05-15T17:10:19.614Z,87.14
2019-05-15T17:15:25.199Z,87.63
2019-05-15T17:20:30.425Z,87.26
2019-05-15T17:25:37.969Z,87.06
2019-05-15T17:30:43.824Z,87.71
2019-05-15T17:35:50.681Z,88.29
2019-05-15T17:40:57.858Z,88.40
2019-05-15T17:46:03.472Z,88.51
2019-05-15T17:51:09.248Z,89.30
2019-05-15T17:56:14.868Z,89.77
2019-05-15T18:01:21.212Z,90.32
2019-05-15T18:06:28.890Z,90.44
2019-05-15T18:11:34.414Z,89.85
2019-05-15T18:16:39.674Z,89.15
2019-05-15T18:21:44.840Z,89.18
2019-05-15T18:26:50.245Z,88.97
2019-05-15T18:31:57.115Z,88.16
2019-05-15T18:37:05.210Z,87.60
2019-05-15T18:42:10.612Z,87.97
2019-05-15T18:47:16.046Z,88.95
2019-05-15T18:52:21.275Z,88.72
2019-05-15T18:57:26.978Z,89.36
2019-05-15T19:02:32.726Z,89.79
2019-05-15T19:07:38.902Z,89.50
2019-05-15T19:12:44.141Z,89.47
2019-05-15T19:17:49.667Z,89.91
2019-05-15T19:22:55.193Z,90.71
2019-05-15T19:28:00.593Z,90.21
2019-05-15T19:33:07.870Z,89.50
2019-05-15T19:38:13.220Z,90.08
2019-05-15T19:43:18.662Z,89.88
2019-05-15T19:48:24.379Z,89.62
2019-05-15T19:53:31.581Z,89.72
2019-05-15T19:58:37.380Z,89.96
2019-05-15T20:03:50.690Z,89.97
2019-05-15T20:08:51.020Z,90.16
2019-05-15T20:13:58.312Z,90.60
2019-05-15T20:19:08.757Z,90.83
2019-05-15T20:24:14.273Z,90.71
2019-05-15T20:29:20.784Z,90.43
2019-05-15T20:34:28.580Z,90.37
2019-05-15T20:39:34.001Z,90.01
2019-05-15T20:44:40.978Z,89.98
2019-05-15T20:49:48.575Z,89.69
2019-05-15T20:54:55.049Z,89.14
2019-05-15T21:00:00.323Z,90.54
2019-05-15T21:05:08.673Z,90.28
2019-05-15T21:10:13.374Z,90.33
2019-05-15T21:15:21.378Z,89.92
2019-05-15T21:20:28.792Z,89.58
2019-05-15T21:25:34.058Z,89.79
2019-05-15T21:30:41.034Z,89.53
2019-05-15T21:35:47.822Z,89.62
2019-05-15T21:40:53.370Z,90.78
2019-05-15T21:45:59.268Z,89.94
2019-05-15T21:51:04.526Z,91.53
2019-05-15T21:56:09.683Z,91.43
2019-05-15T22:01:15.314Z,90.04
2019-05-15T22:06:21.118Z,89.67
2019-05-15T22:11:29.562Z,90.54
2019-05-15T22:16:35.449Z,91.25
2019-05-15T22:21:42.058Z,90.92
2019-05-15T22:26:48.149Z,90.69
2019-05-15T22:31:53.646Z,90.46
2019-05-15T22:36:58.893Z,90.98
2019-05-15T22:42:04.194Z,90.36
2019-05-15T22:47:09.379Z,90.67
2019-05-15T22:52:14.827Z,89.99
2019-05-15T22:57:20.287Z,89.62
2019-05-15T23:02:26.103Z,89.77
2019-05-15T23:07:31.864Z,89.90
2019-05-15T23:12:38.239Z,90.08
2019-05-15T23:17:43.981Z,90.96
2019-05-15T23:22:49.616Z,91.97
2019-05-15T23:27:54.816Z,90.80
2019-05-15T23:33:00.083Z,90.93
2019-05-15T23:38:05.363Z,90.07
2019-05-15T23:43:10.605Z,90.20
2019-05-15T23:48:15.858Z,90.29
2019-05-15T23:53:21.165Z,90.46
2019-05-15T23:58:29.137Z,89.92
